Time;durP1;ratioP1;P1;durP2;ratioP2;P2;SDS_P1;SDS_P2;PMS_P1;PMS_P2;Temp;Humidity;BMP_temperature;BMP_pressure;BME280_temperature;BME280_humidity;BME280_pressure;Samples;Min_cycle;Max_cycle;Signal;HPM_P1;HPM_P2
2023/07/29 00:01:22;;;;;;;7.20;6.60;;;18.70;99.90;;;;;;4961276;29;20746;-59
2023/07/29 00:03:49;;;;;;;7.00;6.40;;;18.70;99.90;;;;;;4960584;29;20467;-58
2023/07/29 00:06:17;;;;;;;5.63;5.13;;;18.60;99.90;;;;;;4960770;29;20473;-59
2023/07/29 00:08:44;;;;;;;6.33;5.83;;;18.60;99.90;;;;;;4960687;29;20566;-59
2023/07/29 00:11:11;;;;;;;5.40;5.00;;;18.60;99.90;;;;;;4960896;29;20561;-59
2023/07/29 00:13:40;;;;;;;5.97;5.53;;;18.60;99.90;;;;;;4960988;29;20441;-58
2023/07/29 00:16:07;;;;;;;5.50;5.00;;;18.60;99.90;;;;;;4959582;29;20473;-59
2023/07/29 00:18:35;;;;;;;8.40;5.00;;;18.50;99.90;;;;;;4960612;28;20786;-59
2023/07/29 00:21:02;;;;;;;5.03;4.53;;;18.50;99.90;;;;;;4960740;28;20466;-59
2023/07/29 00:23:30;;;;;;;5.03;4.63;;;18.50;99.90;;;;;;4960974;29;20462;-59
2023/07/29 00:25:57;;;;;;;5.40;4.90;;;18.40;99.90;;;;;;4960261;29;20477;-59
2023/07/29 00:28:24;;;;;;;5.53;5.00;;;18.40;99.90;;;;;;4960437;28;20495;-59
2023/07/29 00:30:53;;;;;;;9.37;5.40;;;18.40;99.90;;;;;;4960482;29;20466;-59
2023/07/29 00:33:20;;;;;;;4.50;4.10;;;18.40;99.90;;;;;;4960835;29;20521;-59
2023/07/29 00:35:48;;;;;;;4.93;4.43;;;18.40;99.90;;;;;;4960544;29;20449;-59
2023/07/29 00:38:15;;;;;;;5.13;4.53;;;18.50;99.90;;;;;;4960587;29;20473;-59
2023/07/29 00:40:42;;;;;;;5.53;4.30;;;18.50;99.90;;;;;;4960364;29;20825;-59
2023/07/29 00:43:10;;;;;;;4.80;4.40;;;18.50;99.90;;;;;;4960447;29;20759;-59
2023/07/29 00:45:37;;;;;;;4.80;4.40;;;18.50;99.90;;;;;;4960386;29;20459;-59
2023/07/29 00:48:06;;;;;;;4.60;4.07;;;18.50;99.90;;;;;;4959978;28;20473;-58
2023/07/29 00:50:34;;;;;;;4.57;4.17;;;18.50;99.90;;;;;;4960178;29;20466;-58
2023/07/29 00:53:01;;;;;;;6.90;4.40;;;18.40;99.90;;;;;;4960241;29;20531;-58
2023/07/29 00:55:29;;;;;;;4.40;4.00;;;18.40;99.90;;;;;;4959713;29;20467;-58
2023/07/29 00:57:56;;;;;;;4.47;4.07;;;18.50;99.90;;;;;;4959711;29;20464;-58
2023/07/29 01:00:24;;;;;;;10.00;4.60;;;18.50;99.90;;;;;;4960169;29;20443;-58
2023/07/29 01:02:52;;;;;;;5.43;4.00;;;18.50;99.90;;;;;;4959917;29;20967;-58
2023/07/29 01:05:21;;;;;;;4.57;4.17;;;18.50;99.90;;;;;;4960324;29;20467;-58
2023/07/29 01:07:56;;;;;;;4.47;4.07;;;18.40;99.90;;;;;;4959917;29;20771;-58
2023/07/29 01:10:38;;;;;;;5.00;3.63;;;18.40;99.90;;;;;;4959345;29;20498;-58
2023/07/29 01:13:11;;;;;;;4.97;4.50;;;18.40;99.90;;;;;;4959504;28;20582;-58
2023/07/29 01:15:44;;;;;;;5.40;4.40;;;18.40;99.90;;;;;;4960169;29;20951;-59
2023/07/29 01:18:16;;;;;;;4.47;4.07;;;18.40;99.90;;;;;;4959480;29;20497;-58
2023/07/29 01:20:46;;;;;;;4.30;3.90;;;18.40;99.90;;;;;;4959582;28;20444;-59
2023/07/29 01:23:13;;;;;;;5.57;3.90;;;18.30;99.90;;;;;;4959662;29;20460;-59
2023/07/29 01:25:42;;;;;;;4.80;4.07;;;18.40;99.90;;;;;;4959980;29;20735;-58
2023/07/29 01:28:09;;;;;;;4.27;3.87;;;18.40;99.90;;;;;;4959672;29;20459;-59
2023/07/29 01:30:41;;;;;;;4.90;3.73;;;18.40;99.90;;;;;;4959610;29;20462;-59
2023/07/29 01:33:15;;;;;;;4.70;4.30;;;18.40;99.90;;;;;;4959545;28;20866;-59
2023/07/29 01:35:45;;;;;;;5.70;3.60;;;18.40;99.90;;;;;;4959582;29;20522;-59
2023/07/29 01:38:17;;;;;;;5.37;3.90;;;18.40;99.90;;;;;;4958770;28;20470;-59
2023/07/29 01:40:46;;;;;;;4.20;3.90;;;18.40;99.90;;;;;;4959364;29;20824;-59
2023/07/29 01:43:14;;;;;;;4.47;3.87;;;18.40;99.90;;;;;;4959365;28;20508;-59
2023/07/29 01:45:41;;;;;;;4.80;3.97;;;18.40;99.90;;;;;;4959409;29;20467;-58
2023/07/29 01:48:09;;;;;;;5.07;4.40;;;18.40;99.90;;;;;;4959206;29;20466;-59
2023/07/29 01:50:36;;;;;;;4.50;4.10;;;18.40;99.90;;;;;;4959289;29;20466;-59
2023/07/29 01:53:03;;;;;;;4.00;3.60;;;18.40;99.90;;;;;;4959180;29;20490;-59
2023/07/29 01:55:31;;;;;;;8.53;3.70;;;18.40;99.90;;;;;;4959128;29;20570;-58
2023/07/29 01:57:59;;;;;;;3.93;3.53;;;18.40;99.90;;;;;;4958967;29;20570;-59
2023/07/29 02:00:26;;;;;;;4.77;3.80;;;18.30;99.90;;;;;;4959240;29;20466;-59
2023/07/29 02:02:54;;;;;;;4.53;3.80;;;18.40;99.90;;;;;;4959281;29;20467;-59
2023/07/29 02:05:21;;;;;;;5.10;4.07;;;18.40;99.90;;;;;;4959247;28;20470;-59
2023/07/29 02:07:48;;;;;;;4.80;3.90;;;18.30;99.90;;;;;;4958829;29;20477;-59
2023/07/29 02:10:15;;;;;;;8.77;4.13;;;18.30;99.90;;;;;;4958738;29;20466;-59
2023/07/29 02:12:42;;;;;;;4.47;3.60;;;18.30;99.90;;;;;;4958777;28;20498;-59
2023/07/29 02:15:11;;;;;;;4.43;3.90;;;18.30;99.90;;;;;;4959195;29;20565;-59
2023/07/29 02:17:38;;;;;;;9.00;4.43;;;18.40;99.90;;;;;;4958817;29;20490;-59
2023/07/29 02:20:07;;;;;;;5.40;4.00;;;18.30;99.90;;;;;;4958802;29;20892;-59
2023/07/29 02:22:34;;;;;;;5.60;4.47;;;18.30;99.90;;;;;;4958695;28;20467;-59
2023/07/29 02:25:02;;;;;;;3.90;3.60;;;18.30;99.90;;;;;;4958758;29;20465;-59
2023/07/29 02:27:29;;;;;;;5.10;3.80;;;18.30;99.90;;;;;;4959127;29;20471;-59
2023/07/29 02:29:56;;;;;;;4.87;4.43;;;18.30;99.90;;;;;;4958669;29;20886;-59
2023/07/29 02:32:25;;;;;;;4.97;4.47;;;18.20;99.90;;;;;;4958479;29;20495;-58
2023/07/29 02:34:52;;;;;;;7.00;5.33;;;18.20;99.90;;;;;;4959039;29;20467;-58
2023/07/29 02:37:19;;;;;;;6.80;5.43;;;18.20;99.90;;;;;;4959284;28;20467;-58
2023/07/29 02:39:47;;;;;;;8.13;5.23;;;18.20;99.90;;;;;;4958445;29;20553;-58
2023/07/29 02:42:14;;;;;;;9.80;5.27;;;18.30;99.90;;;;;;4958668;29;20466;-59
2023/07/29 02:44:41;;;;;;;5.77;5.17;;;18.30;99.90;;;;;;4958696;28;20467;-59
2023/07/29 02:47:09;;;;;;;5.33;4.83;;;18.30;99.90;;;;;;4958672;29;20464;-59
2023/07/29 02:49:37;;;;;;;8.93;5.13;;;18.30;99.90;;;;;;4958703;28;20441;-59
2023/07/29 02:52:05;;;;;;;7.87;4.90;;;18.20;99.90;;;;;;4961092;29;20477;-58
2023/07/29 02:54:32;;;;;;;5.50;4.97;;;18.30;99.90;;;;;;4962414;29;20466;-59
2023/07/29 02:57:00;;;;;;;6.93;5.53;;;18.20;99.90;;;;;;4962527;28;20473;-59
2023/07/29 02:59:27;;;;;;;5.57;5.03;;;18.20;99.90;;;;;;4961940;28;20494;-59
2023/07/29 03:01:54;;;;;;;6.60;6.10;;;18.20;99.90;;;;;;4962077;29;20899;-59
2023/07/29 03:04:23;;;;;;;5.70;5.20;;;18.20;99.90;;;;;;4962081;29;20462;-59
2023/07/29 03:06:52;;;;;;;7.10;6.10;;;18.30;99.90;;;;;;4962269;29;20449;-58
2023/07/29 03:09:19;;;;;;;7.00;5.90;;;18.30;99.90;;;;;;4962233;29;20485;-58
2023/07/29 03:11:47;;;;;;;7.43;6.83;;;18.30;99.90;;;;;;4962199;28;20448;-58
2023/07/29 03:14:14;;;;;;;6.50;6.00;;;18.30;99.90;;;;;;4961907;29;20495;-58
2023/07/29 03:16:41;;;;;;;7.23;6.63;;;18.30;99.90;;;;;;4962463;28;20474;-59
2023/07/29 03:19:08;;;;;;;8.00;7.30;;;18.30;99.90;;;;;;4969833;28;20490;-59
2023/07/29 03:21:35;;;;;;;9.00;8.20;;;18.30;99.90;;;;;;4970558;28;20462;-58
2023/07/29 03:24:04;;;;;;;8.63;7.93;;;18.40;99.90;;;;;;4976384;28;20871;-59
2023/07/29 03:26:31;;;;;;;7.80;7.00;;;18.40;99.90;;;;;;4979036;28;20465;-59
2023/07/29 03:28:58;;;;;;;7.60;6.90;;;18.40;99.90;;;;;;4961808;29;20760;-59
2023/07/29 03:31:25;;;;;;;8.73;8.03;;;18.40;99.90;;;;;;4961674;29;20473;-57
2023/07/29 03:33:52;;;;;;;8.70;7.90;;;18.40;99.90;;;;;;4961115;29;20494;-57
2023/07/29 03:36:19;;;;;;;9.17;8.37;;;18.40;99.90;;;;;;4961189;28;20444;-57
2023/07/29 03:38:47;;;;;;;9.30;8.60;;;18.40;99.90;;;;;;4961708;28;20464;-59
2023/07/29 03:41:15;;;;;;;9.00;8.20;;;18.40;99.90;;;;;;4964185;28;20462;-58
2023/07/29 03:43:42;;;;;;;8.63;7.73;;;18.40;99.90;;;;;;4970771;28;20546;-58
2023/07/29 03:46:10;;;;;;;9.10;8.40;;;18.40;99.90;;;;;;4961095;29;20475;-59
2023/07/29 03:48:37;;;;;;;13.07;8.83;;;18.40;99.90;;;;;;4977837;28;20472;-60
2023/07/29 03:51:04;;;;;;;14.07;9.37;;;18.40;99.90;;;;;;4981074;28;20470;-59
2023/07/29 03:53:31;;;;;;;10.70;8.93;;;18.40;99.90;;;;;;4980569;28;20489;-58
2023/07/29 03:55:58;;;;;;;10.43;9.53;;;18.40;99.90;;;;;;4980428;28;20560;-58
2023/07/29 03:58:27;;;;;;;11.53;10.37;;;18.40;99.90;;;;;;4980535;28;20887;-58
2023/07/29 04:00:54;;;;;;;10.73;9.73;;;18.40;99.90;;;;;;4962647;28;20568;-58
2023/07/29 04:03:21;;;;;;;12.60;11.50;;;18.40;99.90;;;;;;4960757;28;20482;-58
2023/07/29 04:05:48;;;;;;;12.27;11.07;;;18.40;99.90;;;;;;4960685;28;20466;-59
2023/07/29 04:08:16;;;;;;;13.00;11.90;;;18.40;99.90;;;;;;4960775;29;20905;-58
2023/07/29 04:10:43;;;;;;;13.60;12.30;;;18.40;99.90;;;;;;4960948;29;20570;-59
2023/07/29 04:13:10;;;;;;;12.97;11.97;;;18.50;99.90;;;;;;4960783;29;20490;-58
2023/07/29 04:15:39;;;;;;;14.63;13.40;;;18.50;99.90;;;;;;4960967;29;20443;-59
2023/07/29 04:18:06;;;;;;;16.30;14.80;;;18.50;99.90;;;;;;4960815;28;20493;-59
2023/07/29 04:20:33;;;;;;;14.10;12.80;;;18.50;99.90;;;;;;4961957;28;20454;-59
2023/07/29 04:23:00;;;;;;;14.70;13.50;;;18.50;99.90;;;;;;4960995;28;20481;-58
2023/07/29 04:25:28;;;;;;;15.23;14.03;;;18.50;99.90;;;;;;4960733;29;20471;-59
2023/07/29 04:27:57;;;;;;;16.40;14.63;;;18.50;99.90;;;;;;4960545;29;20880;-59
2023/07/29 04:30:24;;;;;;;16.63;15.13;;;18.50;99.90;;;;;;4960191;28;20466;-59
2023/07/29 04:32:53;;;;;;;16.20;14.90;;;18.50;99.90;;;;;;4960974;28;20462;-59
2023/07/29 04:35:20;;;;;;;16.97;15.63;;;18.50;99.90;;;;;;4961449;28;20477;-59
2023/07/29 04:37:48;;;;;;;18.73;17.03;;;18.50;99.90;;;;;;4979595;28;20742;-59
2023/07/29 04:40:15;;;;;;;17.57;16.17;;;18.60;99.90;;;;;;4979757;28;20497;-59
2023/07/29 04:42:42;;;;;;;17.47;16.00;;;18.60;99.90;;;;;;4979474;28;20448;-58
2023/07/29 04:45:10;;;;;;;18.60;17.10;;;18.60;99.90;;;;;;4978954;28;20752;-59
2023/07/29 04:47:37;;;;;;;19.37;17.77;;;18.60;99.90;;;;;;4979605;28;20465;-59
2023/07/29 04:50:07;;;;;;;19.17;17.47;;;18.50;99.90;;;;;;4978689;28;20436;-59
2023/07/29 04:52:34;;;;;;;19.60;17.90;;;18.50;99.90;;;;;;4978449;28;20557;-59
2023/07/29 04:55:02;;;;;;;17.63;16.10;;;18.50;99.90;;;;;;4979433;28;20515;-59
2023/07/29 04:57:29;;;;;;;20.80;18.80;;;18.50;99.90;;;;;;4979100;28;20918;-59
2023/07/29 04:59:56;;;;;;;19.27;17.67;;;18.50;99.90;;;;;;4979225;28;20760;-60
2023/07/29 05:02:23;;;;;;;19.00;17.43;;;18.50;99.90;;;;;;4979057;28;20472;-60
2023/07/29 05:04:50;;;;;;;17.53;16.13;;;18.40;99.90;;;;;;4979585;28;20463;-61
2023/07/29 05:07:19;;;;;;;15.17;13.70;;;18.40;99.90;;;;;;4979379;28;20925;-60
2023/07/29 05:09:46;;;;;;;13.83;12.63;;;18.30;99.90;;;;;;4979374;28;20469;-60
2023/07/29 05:12:14;;;;;;;11.77;10.73;;;18.20;99.90;;;;;;4979132;28;20532;-60
2023/07/29 05:14:41;;;;;;;11.30;10.30;;;18.10;99.90;;;;;;4978043;28;20541;-60
2023/07/29 05:17:08;;;;;;;12.97;11.77;;;18.20;99.90;;;;;;4978692;28;20466;-61
2023/07/29 05:19:35;;;;;;;9.50;8.70;;;18.10;99.90;;;;;;4979087;28;20470;-60
2023/07/29 05:22:03;;;;;;;10.50;9.70;;;18.10;99.90;;;;;;4978901;28;20470;-60
2023/07/29 05:24:31;;;;;;;8.53;7.83;;;18.10;99.90;;;;;;4978912;28;20489;-59
2023/07/29 05:26:58;;;;;;;12.33;8.40;;;18.10;99.90;;;;;;4979002;28;20485;-59
2023/07/29 05:29:25;;;;;;;7.53;6.83;;;18.10;99.90;;;;;;4979320;28;20436;-61
2023/07/29 05:31:52;;;;;;;8.33;7.50;;;18.10;99.90;;;;;;4978866;28;20468;-60
2023/07/29 05:34:19;;;;;;;7.03;6.43;;;18.10;99.90;;;;;;4978703;28;20915;-60
2023/07/29 05:36:47;;;;;;;8.00;6.80;;;18.20;99.90;;;;;;4978118;28;20465;-60
2023/07/29 05:39:14;;;;;;;6.63;6.13;;;18.30;99.90;;;;;;4978769;28;20520;-58
2023/07/29 05:41:42;;;;;;;6.03;5.53;;;18.40;99.90;;;;;;4978803;28;20466;-59
2023/07/29 05:44:10;;;;;;;6.27;5.67;;;18.40;99.90;;;;;;4979037;28;20440;-59
2023/07/29 05:46:37;;;;;;;6.90;6.30;;;18.30;99.90;;;;;;4978420;28;20472;-58
2023/07/29 05:49:04;;;;;;;6.27;5.57;;;18.40;99.90;;;;;;4978917;28;20473;-59
2023/07/29 05:51:31;;;;;;;5.90;5.30;;;18.50;99.90;;;;;;4978974;28;20879;-58
2023/07/29 05:53:58;;;;;;;5.80;5.20;;;18.40;99.90;;;;;;4978809;28;20501;-58
2023/07/29 05:56:25;;;;;;;5.43;4.93;;;18.30;99.90;;;;;;4978434;28;20464;-58
2023/07/29 05:58:54;;;;;;;8.17;4.53;;;18.20;99.90;;;;;;4978453;28;20904;-59
2023/07/29 06:01:22;;;;;;;6.27;4.53;;;18.10;99.90;;;;;;4978377;28;20497;-58
2023/07/29 06:03:49;;;;;;;6.20;5.70;;;18.10;99.90;;;;;;4977799;28;20461;-58
2023/07/29 06:06:17;;;;;;;7.40;5.40;;;18.00;99.90;;;;;;4978078;28;20944;-58
2023/07/29 06:08:44;;;;;;;4.93;4.40;;;17.80;99.90;;;;;;4978191;28;20566;-59
2023/07/29 06:11:11;;;;;;;6.00;5.40;;;17.90;99.90;;;;;;4978437;28;20469;-59
2023/07/29 06:13:38;;;;;;;5.77;5.17;;;17.90;99.90;;;;;;4978353;28;20502;-59
2023/07/29 06:16:07;;;;;;;5.80;5.27;;;17.80;99.90;;;;;;4978415;28;20738;-58
2023/07/29 06:18:34;;;;;;;6.37;5.33;;;17.90;99.90;;;;;;4978167;28;20509;-58
2023/07/29 06:21:01;;;;;;;6.00;5.40;;;17.90;99.90;;;;;;4978564;28;20853;-61
2023/07/29 06:23:28;;;;;;;6.80;6.07;;;17.90;99.90;;;;;;4977747;28;20465;-59
2023/07/29 06:25:55;;;;;;;5.40;4.83;;;17.80;99.90;;;;;;4980901;28;20462;-59
2023/07/29 06:28:23;;;;;;;6.70;5.23;;;17.90;99.90;;;;;;4982117;28;20465;-59
2023/07/29 06:30:50;;;;;;;5.63;5.03;;;17.90;99.90;;;;;;4982003;28;20444;-58
2023/07/29 06:33:18;;;;;;;5.90;5.00;;;18.00;99.90;;;;;;4982114;28;20440;-59
2023/07/29 06:35:45;;;;;;;7.10;5.30;;;18.10;99.90;;;;;;4982173;28;20472;-59
2023/07/29 06:38:13;;;;;;;5.00;4.50;;;18.10;99.90;;;;;;4981964;28;20504;-59
2023/07/29 06:40:40;;;;;;;5.93;4.37;;;18.10;99.90;;;;;;4981801;28;20465;-59
2023/07/29 06:43:07;;;;;;;6.10;4.97;;;18.00;99.90;;;;;;4982161;28;20564;-59
2023/07/29 06:45:34;;;;;;;6.13;5.40;;;18.00;99.90;;;;;;4982051;28;20440;-58
2023/07/29 06:48:01;;;;;;;5.70;4.97;;;17.90;99.90;;;;;;4981473;28;20470;-59
2023/07/29 06:50:31;;;;;;;6.03;5.37;;;18.00;99.90;;;;;;4980280;28;20919;-59
2023/07/29 06:52:58;;;;;;;6.20;5.00;;;17.90;99.90;;;;;;4977281;28;20786;-59
2023/07/29 06:55:25;;;;;;;8.17;5.00;;;18.00;99.90;;;;;;4981754;28;20794;-59
2023/07/29 06:57:52;;;;;;;5.20;4.70;;;18.00;99.90;;;;;;4980211;28;20447;-60
2023/07/29 07:00:20;;;;;;;5.87;5.30;;;17.90;99.90;;;;;;4979303;28;20758;-60
2023/07/29 07:02:47;;;;;;;5.33;4.00;;;18.00;99.90;;;;;;4981060;28;20886;-58
2023/07/29 07:05:14;;;;;;;5.77;4.30;;;17.90;99.90;;;;;;4981320;28;20868;-60
2023/07/29 07:07:43;;;;;;;5.13;4.63;;;17.90;99.90;;;;;;4980182;28;20898;-60
2023/07/29 07:10:10;;;;;;;3.73;3.33;;;18.10;99.90;;;;;;4979777;28;20879;-59
2023/07/29 07:12:37;;;;;;;4.47;4.07;;;18.20;99.90;;;;;;4979594;28;20441;-59
2023/07/29 07:15:05;;;;;;;4.07;3.67;;;18.30;99.90;;;;;;4979958;28;20580;-59
2023/07/29 07:17:32;;;;;;;5.47;3.90;;;18.50;99.90;;;;;;4979546;28;20469;-59
2023/07/29 07:20:00;;;;;;;3.90;3.50;;;18.60;99.90;;;;;;4979783;28;20523;-59
2023/07/29 07:22:27;;;;;;;4.40;3.60;;;18.80;99.90;;;;;;4979622;28;20780;-58
2023/07/29 07:24:55;;;;;;;3.60;3.00;;;18.90;99.90;;;;;;4979642;28;20752;-59
2023/07/29 07:27:23;;;;;;;4.73;3.20;;;18.90;99.90;;;;;;4967558;28;20760;-59
2023/07/29 07:29:50;;;;;;;6.97;3.70;;;19.10;99.90;;;;;;4960008;28;20542;-59
2023/07/29 07:32:17;;;;;;;5.03;3.40;;;19.30;99.90;;;;;;4959892;29;20473;-61
2023/07/29 07:34:44;;;;;;;7.67;3.20;;;19.30;99.90;;;;;;4959843;28;20501;-58
2023/07/29 07:37:11;;;;;;;3.60;3.30;;;19.40;99.90;;;;;;4960973;28;20474;-58
2023/07/29 07:39:38;;;;;;;4.70;3.20;;;19.60;99.90;;;;;;4961745;29;20466;-58
2023/07/29 07:42:07;;;;;;;4.83;3.10;;;19.40;1.00;;;;;;4961407;29;20529;-58
2023/07/29 07:44:34;;;;;;;5.17;3.53;;;19.30;99.90;;;;;;4961741;29;20878;-59
2023/07/29 07:47:02;;;;;;;3.30;3.00;;;19.20;1.00;;;;;;4961846;29;20470;-59
2023/07/29 07:49:29;;;;;;;4.00;3.20;;;19.20;1.00;;;;;;4961780;28;20462;-58
2023/07/29 07:51:56;;;;;;;3.50;2.60;;;19.40;99.90;;;;;;4961282;28;20471;-58
2023/07/29 07:54:23;;;;;;;3.00;2.57;;;19.60;99.90;;;;;;4960743;29;20501;-59
2023/07/29 07:56:50;;;;;;;3.87;2.90;;;20.20;1.00;;;;;;4961157;29;20452;-59
2023/07/29 07:59:19;;;;;;;5.43;3.00;;;20.10;3.20;;;;;;4961774;29;20458;-59
2023/07/29 08:01:46;;;;;;;3.77;2.70;;;20.40;99.90;;;;;;4961620;28;20919;-58
2023/07/29 08:04:13;;;;;;;3.33;2.40;;;20.60;99.90;;;;;;4960852;29;20448;-58
2023/07/29 08:06:41;;;;;;;3.20;2.70;;;20.90;99.90;;;;;;4961053;29;20899;-58
2023/07/29 08:09:08;;;;;;;4.20;3.03;;;21.00;1.00;;;;;;4961101;29;20565;-58
2023/07/29 08:11:35;;;;;;;2.67;2.37;;;20.70;99.90;;;;;;4960912;29;20441;-58
2023/07/29 08:14:03;;;;;;;3.30;2.60;;;20.80;99.90;;;;;;4960761;29;20466;-58
2023/07/29 08:16:32;;;;;;;3.67;2.80;;;20.80;37.30;;;;;;4961001;28;20524;-59
2023/07/29 08:18:59;;;;;;;3.10;2.77;;;21.20;90.20;;;;;;4960659;29;20505;-58
2023/07/29 08:21:27;;;;;;;3.23;2.90;;;21.30;1.00;;;;;;4961282;29;20559;-58
2023/07/29 08:23:54;;;;;;;3.23;2.93;;;21.20;1.00;;;;;;4960643;29;20473;-58
2023/07/29 08:26:22;;;;;;;3.20;2.80;;;21.30;1.00;;;;;;4960657;28;20493;-58
2023/07/29 08:28:49;;;;;;;3.40;3.10;;;21.20;1.00;;;;;;4960975;29;20743;-58
2023/07/29 08:31:17;;;;;;;3.73;2.60;;;20.70;1.00;;;;;;4961060;28;20493;-58
2023/07/29 08:33:45;;;;;;;2.90;2.60;;;20.70;1.00;;;;;;4961079;28;20463;-58
2023/07/29 08:36:12;;;;;;;3.50;2.30;;;20.40;1.00;;;;;;4960839;29;20499;-59
2023/07/29 08:38:40;;;;;;;3.50;2.63;;;20.40;1.00;;;;;;4960563;28;20554;-59
2023/07/29 08:41:14;;;;;;;3.70;2.43;;;21.00;1.00;;;;;;4960406;28;20562;-58
2023/07/29 08:44:00;;;;;;;3.20;2.90;;;21.70;1.00;;;;;;4960633;28;20471;-59
2023/07/29 08:46:27;;;;;;;2.93;2.50;;;22.40;1.00;;;;;;4960186;28;20473;-58
2023/07/29 08:48:57;;;;;;;4.20;3.33;;;22.90;1.00;;;;;;4960387;28;20474;-58
2023/07/29 08:51:25;;;;;;;3.30;2.60;;;23.30;1.00;;;;;;4960311;29;20467;-59
2023/07/29 08:53:52;;;;;;;2.40;2.17;;;23.40;1.00;;;;;;4959885;29;20466;-58
2023/07/29 08:56:19;;;;;;;5.83;2.93;;;23.60;1.00;;;;;;4959642;29;20535;-56
2023/07/29 08:58:47;;;;;;;4.23;2.67;;;23.50;1.00;;;;;;4967767;28;20458;-58
2023/07/29 09:01:15;;;;;;;3.70;2.80;;;23.40;1.00;;;;;;4979130;28;20469;-58
2023/07/29 09:03:43;;;;;;;2.90;2.40;;;23.00;1.00;;;;;;4978930;28;20473;-57
2023/07/29 09:06:13;;;;;;;2.70;2.50;;;22.90;1.00;;;;;;4978861;28;20754;-58
2023/07/29 09:08:40;;;;;;;3.00;2.00;;;22.40;1.00;;;;;;4978738;28;20472;-59
2023/07/29 09:11:08;;;;;;;3.87;2.70;;;22.80;1.00;;;;;;4979089;28;20743;-58
2023/07/29 09:13:35;;;;;;;3.20;2.77;;;22.90;1.00;;;;;;4979234;28;20822;-58
2023/07/29 09:16:03;;;;;;;2.60;2.40;;;22.80;1.00;;;;;;4978410;28;20592;-59
2023/07/29 09:18:30;;;;;;;4.90;2.97;;;22.60;1.00;;;;;;4976924;28;20504;-58
2023/07/29 09:21:00;;;;;;;2.97;2.67;;;22.80;1.00;;;;;;4978994;28;20474;-58
2023/07/29 09:23:29;;;;;;;3.20;2.50;;;23.40;1.00;;;;;;4979470;28;20454;-59
2023/07/29 09:26:02;;;;;;;3.40;2.90;;;23.60;1.00;;;;;;4978650;28;20466;-59
2023/07/29 09:28:34;;;;;;;3.70;2.60;;;23.20;1.00;;;;;;4972961;28;20762;-59
2023/07/29 09:31:02;;;;;;;3.00;2.70;;;22.80;1.00;;;;;;4963863;28;20465;-58
2023/07/29 09:33:29;;;;;;;3.47;2.30;;;22.70;1.00;;;;;;4959295;29;20466;-58
2023/07/29 09:35:56;;;;;;;4.30;2.10;;;22.50;1.00;;;;;;4959189;28;20589;-59
2023/07/29 09:38:29;;;;;;;3.03;2.73;;;22.40;1.00;;;;;;4961889;28;20483;-59
2023/07/29 09:40:58;;;;;;;3.67;2.63;;;22.30;1.00;;;;;;4971134;28;20569;-59
2023/07/29 09:43:27;;;;;;;2.70;2.40;;;22.20;1.00;;;;;;4978688;28;20734;-59
2023/07/29 09:45:54;;;;;;;3.10;2.40;;;22.10;1.00;;;;;;4978794;28;20818;-59
2023/07/29 09:48:24;;;;;;;3.63;3.07;;;21.80;1.00;;;;;;4978646;28;20470;-58
2023/07/29 09:50:51;;;;;;;3.70;2.40;;;22.00;1.00;;;;;;4978894;28;20746;-59
2023/07/29 09:53:18;;;;;;;3.60;2.43;;;22.40;1.00;;;;;;4978757;28;20959;-58
2023/07/29 09:55:50;;;;;;;6.53;2.40;;;22.60;1.00;;;;;;4978951;28;20497;-58
2023/07/29 09:58:26;;;;;;;3.10;2.30;;;22.70;1.00;;;;;;4965551;28;20900;-58
2023/07/29 10:00:53;;;;;;;2.80;2.43;;;23.00;1.00;;;;;;4958657;29;20466;-58
2023/07/29 10:03:22;;;;;;;2.67;2.47;;;23.20;1.00;;;;;;4959283;29;20900;-58
2023/07/29 10:05:50;;;;;;;3.63;2.30;;;23.40;1.00;;;;;;4958981;29;20813;-58
2023/07/29 10:08:19;;;;;;;3.60;2.67;;;23.00;1.00;;;;;;4959234;29;20473;-58
2023/07/29 10:10:48;;;;;;;4.40;2.17;;;22.80;1.00;;;;;;4958986;28;20509;-59
2023/07/29 10:13:17;;;;;;;2.67;2.47;;;22.30;1.00;;;;;;4959296;29;20521;-58
2023/07/29 10:15:46;;;;;;;2.10;1.90;;;22.10;1.00;;;;;;4959320;29;20501;-58
2023/07/29 10:18:14;;;;;;;2.70;2.50;;;21.80;1.00;;;;;;4958902;29;20490;-60
2023/07/29 10:20:44;;;;;;;2.53;2.33;;;21.60;1.00;;;;;;4958821;29;20468;-58
2023/07/29 10:23:12;;;;;;;3.90;2.37;;;21.60;1.00;;;;;;4959238;29;20488;-58
2023/07/29 10:25:43;;;;;;;3.33;2.67;;;21.30;1.00;;;;;;4958923;29;20463;-59
2023/07/29 10:28:13;;;;;;;3.40;2.27;;;21.10;1.00;;;;;;4957572;28;20473;-65
2023/07/29 10:30:41;;;;;;;3.20;2.90;;;21.00;1.00;;;;;;4959064;28;20470;-66
2023/07/29 10:33:08;;;;;;;3.83;2.50;;;20.90;1.00;;;;;;4958388;29;20927;-66
2023/07/29 10:35:35;;;;;;;3.17;2.77;;;20.90;1.00;;;;;;4959188;28;20480;-65
2023/07/29 10:38:04;;;;;;;3.00;2.50;;;20.90;1.00;;;;;;4959212;28;20470;-67
2023/07/29 10:40:46;;;;;;;2.77;2.50;;;21.30;1.00;;;;;;4960361;28;20479;-65
2023/07/29 10:43:19;;;;;;;4.77;2.70;;;22.00;1.00;;;;;;4974105;28;20440;-65
2023/07/29 10:45:47;;;;;;;4.50;2.37;;;22.20;1.00;;;;;;4975518;28;20560;-65
2023/07/29 10:48:35;;;;;;;4.17;3.00;;;22.50;1.00;;;;;;4972466;28;20440;-65
2023/07/29 10:51:24;;;;;;;4.80;2.43;;;23.00;1.00;;;;;;4975368;28;20466;-65
2023/07/29 10:53:54;;;;;;;3.37;2.60;;;23.80;1.00;;;;;;4975875;28;20918;-67
2023/07/29 10:56:30;;;;;;;3.40;2.90;;;24.40;1.00;;;;;;4973833;28;20494;-66
2023/07/29 10:59:03;;;;;;;2.67;2.30;;;24.80;1.00;;;;;;4977632;28;20489;-66
2023/07/29 11:01:32;;;;;;;3.13;2.40;;;24.70;99.90;;;;;;4963025;28;20466;-63
2023/07/29 11:04:17;;;;;;;5.80;2.40;;;24.60;99.90;;;;;;4957623;28;20561;-66
2023/07/29 11:07:22;;;;;;;2.93;2.67;;;24.40;99.90;;;;;;4965529;28;20524;-66
2023/07/29 11:09:57;;;;;;;4.80;2.10;;;24.20;99.90;;;;;;4970874;28;20474;-65
2023/07/29 11:12:42;;;;;;;2.73;2.30;;;23.70;99.90;;;;;;4957803;28;20476;-66
2023/07/29 11:15:28;;;;;;;2.83;2.60;;;23.70;99.90;;;;;;4960012;28;20498;-66
2023/07/29 11:17:56;;;;;;;2.90;2.60;;;24.30;99.90;;;;;;4960781;28;20576;-67
2023/07/29 11:20:25;;;;;;;2.53;2.20;;;24.80;99.90;;;;;;4961706;29;20462;-68
2023/07/29 11:22:53;;;;;;;3.40;2.13;;;25.30;99.90;;;;;;4961225;29;20505;-66
2023/07/29 11:25:23;;;;;;;3.20;2.63;;;25.90;99.90;;;;;;4960380;28;20966;-66
2023/07/29 11:27:52;;;;;;;3.03;2.37;;;25.80;99.90;;;;;;4960016;28;20466;-65
2023/07/29 11:30:19;;;;;;;4.23;2.30;;;25.40;99.90;;;;;;4965858;28;20441;-67
2023/07/29 11:33:01;;;;;;;2.97;2.70;;;24.80;99.90;;;;;;4959727;29;20465;-67
2023/07/29 11:35:28;;;;;;;2.83;2.53;;;24.80;99.90;;;;;;4959436;28;20465;-67
2023/07/29 11:37:57;;;;;;;3.47;1.97;;;24.70;99.90;;;;;;4960226;29;20470;-68
2023/07/29 11:40:25;;;;;;;2.63;2.43;;;25.20;99.90;;;;;;4960134;28;20471;-66
2023/07/29 11:42:53;;;;;;;3.87;2.30;;;25.60;99.90;;;;;;4960392;29;20498;-67
2023/07/29 11:45:21;;;;;;;2.67;2.20;;;26.00;99.90;;;;;;4960741;29;20737;-65
2023/07/29 11:47:50;;;;;;;3.37;2.23;;;26.00;99.90;;;;;;4960894;29;20473;-68
2023/07/29 11:50:17;;;;;;;2.83;2.63;;;25.70;99.90;;;;;;4961131;29;20756;-67
2023/07/29 11:52:46;;;;;;;3.00;2.70;;;25.10;99.90;;;;;;4961393;28;20462;-67
2023/07/29 11:55:15;;;;;;;3.83;3.50;;;24.30;99.90;;;;;;4961385;29;20481;-67
2023/07/29 11:57:43;;;;;;;3.10;2.80;;;23.90;99.90;;;;;;4961399;28;20562;-64
2023/07/29 12:00:14;;;;;;;2.67;2.33;;;23.60;99.90;;;;;;4960210;29;20573;-67
2023/07/29 12:02:44;;;;;;;3.30;3.00;;;23.50;99.90;;;;;;4973127;28;20501;-67
2023/07/29 12:05:14;;;;;;;3.00;2.70;;;23.70;99.90;;;;;;4966083;28;20489;-63
2023/07/29 12:07:43;;;;;;;3.47;2.70;;;24.20;99.90;;;;;;4962579;28;20569;-67
2023/07/29 12:10:11;;;;;;;2.97;2.70;;;24.50;99.90;;;;;;4974648;28;20553;-67
2023/07/29 12:12:45;;;;;;;3.53;3.00;;;25.00;99.90;;;;;;4964103;28;20811;-68
2023/07/29 12:15:12;;;;;;;3.07;2.80;;;25.20;99.90;;;;;;4974932;28;20520;-68
2023/07/29 12:17:41;;;;;;;3.27;2.97;;;25.20;99.90;;;;;;4980116;28;20583;-68
2023/07/29 12:20:10;;;;;;;3.87;3.57;;;25.70;99.90;;;;;;4979901;28;20489;-68
2023/07/29 12:22:39;;;;;;;3.30;3.00;;;26.20;99.90;;;;;;4971449;28;20903;-64
2023/07/29 12:25:07;;;;;;;2.63;2.43;;;26.70;99.90;;;;;;4973184;28;20473;-63
2023/07/29 12:27:34;;;;;;;3.33;2.77;;;27.20;99.90;;;;;;4979661;28;20466;-67
2023/07/29 12:30:04;;;;;;;3.13;2.83;;;27.10;99.90;;;;;;4968580;28;20490;-68
2023/07/29 12:32:31;;;;;;;3.40;2.30;;;27.40;99.90;;;;;;4971422;28;20484;-67
2023/07/29 12:34:58;;;;;;;3.10;2.80;;;27.70;99.90;;;;;;4969087;28;20967;-65
2023/07/29 12:37:33;;;;;;;3.67;2.73;;;27.90;99.90;;;;;;4957949;28;20600;-67
2023/07/29 12:40:01;;;;;;;3.40;2.83;;;27.90;99.90;;;;;;4961038;28;20816;-68
2023/07/29 12:42:29;;;;;;;6.80;3.00;;;27.50;99.90;;;;;;4959438;28;20466;-64
2023/07/29 12:44:56;;;;;;;3.00;2.80;;;27.60;99.90;;;;;;4978509;28;20441;-62
2023/07/29 12:47:23;;;;;;;3.67;2.90;;;27.10;99.90;;;;;;4977419;28;20447;-67
2023/07/29 12:49:52;;;;;;;3.00;2.70;;;26.70;99.90;;;;;;4978003;28;20457;-66
2023/07/29 12:52:19;;;;;;;3.27;3.00;;;26.60;99.90;;;;;;4979101;28;20476;-68
2023/07/29 12:54:47;;;;;;;3.60;3.30;;;27.10;99.90;;;;;;4979785;28;20577;-68